Airfield :
LOGIN :

Register | Disclaimer

   EN    FR    IT 

 










Legend :    VFR   Marginal VFR   IFR   Intensive IFR   Very Intensive IFR
Visi :
Ceiling :
>= 8 km
>= 3000ft
5 to 8 km
1000 to 3000 ft
1500m to 5 km
500 to 1000 ft
800 to 1500m
200 to 500 ft
< 800m
< 200 ft
Symbols :   Thunderstorms  Fog  Heavy snow  Heavy precipitations  Wind > 20 kt
SIGMETs :     Misc.  Thunderstorms  Icing  Turbulence  Mountain Waves  Volcanic Ashes







- Airport Elevation : 26 ft


ETNT - Wittmundhaven AB

CURRENT METAR :
  • 121520Z 24007KT 9999 FEW016 SCT035 BKN080 02/01 Q1006 BLU BLU TEMPO YLO

EXPIRED METARs :
  • 121420Z 25009KT 9999 FEW016 SCT034 OVC080 02/01 Q1005 BLU BLU TEMPO YLO
  • 121320Z 25006KT 9999 FEW016 SCT050 OVC080 02/01 Q1003 BLU BLU TEMPO YLO

TAF TAF ETNT
Valid from the 12 at 15:00 until the 13 at 00:00 UTC


121429Z 1215/1224 25010KT 9999 NSW FEW015 BKN050
BECMG 1219/1221 21012KT 8000 NSW SCT050
TEMPO 1220/1224 21008KT 3000 MIFG FEW050
PROB30 1221/1224 21008KT 0800 FZFG BKN001 BY ETGL
No reported NOTAMs for that airfield.



MET'MAP, your aeronautical weather chart ! - Copyright ORBIFLY December 2007 - Disclaimer

ORBIFLY MET'MAP TEAM :

Programming & Development : Alexandra Zaïnal
Concept & Development : Baudouin d'Aumeries
Co-Development & Prog : Marc-Olivier Méhu
Technical & hardware support : Manuel Goepfert

Contact : metmap@orbifly.com




SOURCES & CREDITS :

   NOAA